createdAt,value
2022-08-17T00:02:31.406Z,100476.47
2022-08-17T00:05:15.432Z,100476.56
2022-08-17T00:07:51.232Z,100476.88
2022-08-17T00:10:31.139Z,100480.19
2022-08-17T00:13:17.938Z,100472.44
2022-08-17T00:15:49.045Z,100477.81
2022-08-17T00:19:01.587Z,100474.88
2022-08-17T00:22:32.650Z,100471.56
2022-08-17T00:24:36.667Z,100481.78
2022-08-17T00:27:10.514Z,100467.53
2022-08-17T00:29:40.692Z,100469.59
2022-08-17T00:33:13.887Z,100460.63
2022-08-17T00:35:25.170Z,100463.91
2022-08-17T00:38:05.415Z,100465.06
2022-08-17T00:40:49.205Z,100456.03
2022-08-17T00:43:29.092Z,100455.25
2022-08-17T00:46:06.174Z,100459.72
2022-08-17T00:48:41.257Z,100458.56
2022-08-17T00:51:37.702Z,100450.00
2022-08-17T00:54:18.923Z,100450.00
2022-08-17T00:56:54.529Z,100443.03
2022-08-17T00:59:33.461Z,100430.38
2022-08-17T01:02:08.774Z,100440.66
2022-08-17T01:04:42.431Z,100447.84
2022-08-17T01:07:16.734Z,100450.09
2022-08-17T01:09:59.417Z,100438.59
2022-08-17T01:12:39.220Z,100437.88
2022-08-17T01:15:12.351Z,100451.44
2022-08-17T01:17:39.975Z,100456.41
2022-08-17T01:20:17.446Z,100450.50
2022-08-17T01:22:47.084Z,100449.28
2022-08-17T01:25:30.360Z,100449.44
2022-08-17T01:28:52.920Z,100451.41
2022-08-17T01:31:13.163Z,100450.41
2022-08-17T01:33:48.026Z,100449.03
2022-08-17T01:36:28.224Z,100446.72
2022-08-17T01:39:02.219Z,100454.72
2022-08-17T01:41:41.303Z,100449.41
2022-08-17T01:44:16.666Z,100451.47
2022-08-17T01:46:53.192Z,100436.56
2022-08-17T01:49:30.519Z,100448.38
2022-08-17T01:52:12.854Z,100456.53
2022-08-17T01:54:47.439Z,100456.47
2022-08-17T01:57:23.461Z,100461.22
2022-08-17T02:00:01.865Z,100461.84
2022-08-17T02:02:52.991Z,100478.84
2022-08-17T02:05:29.380Z,100472.28
2022-08-17T02:08:07.584Z,100476.09
2022-08-17T02:11:04.101Z,100493.41
2022-08-17T02:13:46.389Z,100486.09
2022-08-17T02:16:22.433Z,100486.91
2022-08-17T02:19:00.697Z,100499.19
2022-08-17T02:21:32.539Z,100494.75
2022-08-17T02:24:08.534Z,100494.38
2022-08-17T02:26:44.679Z,100494.03
2022-08-17T02:29:20.437Z,100499.75
2022-08-17T02:31:58.678Z,100502.59
2022-08-17T02:34:29.095Z,100505.09
2022-08-17T02:37:08.628Z,100506.34
2022-08-17T02:39:46.034Z,100497.78
2022-08-17T02:42:28.207Z,100498.66
2022-08-17T02:45:12.436Z,100500.63
2022-08-17T02:47:50.475Z,100504.28
2022-08-17T02:50:25.440Z,100500.97
2022-08-17T02:53:01.873Z,100509.53
2022-08-17T02:55:40.727Z,100502.59
2022-08-17T02:58:14.326Z,100498.03
2022-08-17T03:00:53.247Z,100503.41
2022-08-17T03:03:28.795Z,100503.03
2022-08-17T03:06:02.149Z,100496.63
2022-08-17T03:08:38.234Z,100509.72
2022-08-17T03:11:14.077Z,100504.81
2022-08-17T03:13:50.126Z,100495.81
2022-08-17T03:16:29.314Z,100495.44
2022-08-17T03:19:08.370Z,100496.25
2022-08-17T03:21:43.946Z,100489.75
2022-08-17T03:24:17.071Z,100499.09
2022-08-17T03:26:56.891Z,100502.22
2022-08-17T03:29:30.576Z,100487.88
2022-08-17T03:32:13.637Z,100490.81
2022-08-17T03:34:48.511Z,100485.81
2022-08-17T03:37:22.337Z,100483.78
2022-08-17T03:40:00.934Z,100482.97
2022-08-17T03:42:38.675Z,100477.28
2022-08-17T03:45:15.579Z,100472.13
2022-08-17T03:48:07.200Z,100472.13
2022-08-17T03:51:01.455Z,100467.31
2022-08-17T03:53:47.657Z,100462.41
2022-08-17T03:56:42.111Z,100466.47
2022-08-17T03:59:21.025Z,100466.13
2022-08-17T04:01:59.390Z,100468.53
2022-08-17T04:04:39.353Z,100481.19
2022-08-17T04:07:15.483Z,100493.06
2022-08-17T04:09:48.727Z,100485.44
2022-08-17T04:12:31.161Z,100489.22
2022-08-17T04:14:59.949Z,100489.22
2022-08-17T04:17:35.246Z,100482.78
2022-08-17T04:20:09.490Z,100481.53
2022-08-17T04:23:05.225Z,100483.66
2022-08-17T04:25:41.648Z,100475.19
2022-08-17T04:28:21.453Z,100482.94
2022-08-17T04:31:00.378Z,100480.56
2022-08-17T04:33:33.296Z,100483.66
2022-08-17T04:36:11.891Z,100474.03
2022-08-17T04:38:48.066Z,100472.88
2022-08-17T04:41:43.208Z,100478.59
2022-08-17T04:44:27.154Z,100483.03
2022-08-17T04:47:19.024Z,100479.88
2022-08-17T04:50:01.784Z,100481.88
2022-08-17T04:52:45.595Z,100491.94
2022-08-17T04:55:18.769Z,100487.94
2022-08-17T04:57:56.987Z,100493.19
2022-08-17T05:00:33.591Z,100488.34
2022-08-17T05:03:09.801Z,100493.19
2022-08-17T05:05:52.103Z,100504.16
2022-08-17T05:08:31.312Z,100514.81
2022-08-17T05:11:05.511Z,100518.41
2022-08-17T05:13:41.465Z,100534.34
2022-08-17T05:16:11.800Z,100534.41
2022-08-17T05:18:50.717Z,100547.00
2022-08-17T05:21:32.228Z,100542.94
2022-08-17T05:24:17.629Z,100538.44
2022-08-17T05:27:08.963Z,100539.25
2022-08-17T05:29:45.549Z,100554.72
2022-08-17T05:32:38.001Z,100568.97
2022-08-17T05:35:25.056Z,100564.91
2022-08-17T05:37:59.650Z,100570.22
2022-08-17T05:40:36.466Z,100570.59
2022-08-17T05:43:15.456Z,100565.69
2022-08-17T05:46:15.144Z,100569.25
2022-08-17T05:48:56.193Z,100570.53
2022-08-17T05:51:43.429Z,100579.88
2022-08-17T05:54:29.214Z,100588.78
2022-08-17T05:57:19.746Z,100591.66
2022-08-17T06:00:30.551Z,100590.84
2022-08-17T06:03:20.022Z,100598.06
2022-08-17T06:06:08.979Z,100605.34
2022-08-17T06:09:25.876Z,100609.31
2022-08-17T06:12:14.300Z,100615.56
2022-08-17T06:15:30.782Z,100608.38
2022-08-17T06:18:12.872Z,100610.03
2022-08-17T06:21:11.754Z,100618.72
2022-08-17T06:23:54.805Z,100612.88
2022-08-17T06:26:50.963Z,100612.28
2022-08-17T06:29:52.849Z,100616.69
2022-08-17T06:32:32.266Z,100627.28
2022-08-17T06:35:10.458Z,100624.56
2022-08-17T06:38:00.116Z,100623.56
2022-08-17T06:40:36.617Z,100619.53
2022-08-17T06:43:34.877Z,100633.75
2022-08-17T06:46:18.096Z,100637.72
2022-08-17T06:49:10.603Z,100636.56
2022-08-17T06:51:52.803Z,100634.72
2022-08-17T06:54:43.278Z,100621.22
2022-08-17T06:57:42.109Z,100613.22
2022-08-17T07:00:27.810Z,100616.44
2022-08-17T07:03:13.193Z,100625.19
2022-08-17T07:06:00.349Z,100622.38
2022-08-17T07:08:47.801Z,100607.44
2022-08-17T07:11:28.833Z,100613.81
2022-08-17T07:14:17.485Z,100612.63
2022-08-17T07:17:00.988Z,100605.88
2022-08-17T07:19:36.720Z,100596.25
2022-08-17T07:22:24.283Z,100601.69
2022-08-17T07:25:06.728Z,100602.25
2022-08-17T07:27:51.594Z,100595.94
2022-08-17T07:30:49.364Z,100591.47
2022-08-17T07:33:33.879Z,100607.41
2022-08-17T07:36:29.164Z,100602.81
2022-08-17T07:39:04.964Z,100596.00
2022-08-17T07:41:58.010Z,100580.25
2022-08-17T07:44:49.038Z,100580.22
2022-08-17T07:47:42.443Z,100580.47
2022-08-17T07:50:29.888Z,100580.75
2022-08-17T07:53:23.852Z,100584.84
2022-08-17T07:55:54.039Z,100582.88
2022-08-17T07:58:33.398Z,100579.94
2022-08-17T08:01:15.841Z,100568.88
2022-08-17T08:03:55.858Z,100568.38
2022-08-17T08:06:35.690Z,100574.34
2022-08-17T08:09:06.010Z,100579.25
2022-08-17T08:11:39.257Z,100578.13
2022-08-17T08:14:31.166Z,100583.41
2022-08-17T08:17:05.922Z,100588.91
2022-08-17T08:19:37.491Z,100593.53
2022-08-17T08:22:27.379Z,100587.25
2022-08-17T08:25:43.647Z,100586.13
2022-08-17T08:28:27.887Z,100576.91
2022-08-17T08:31:26.238Z,100575.75
2022-08-17T08:34:44.647Z,100582.34
2022-08-17T08:37:36.631Z,100587.41
2022-08-17T08:40:31.582Z,100579.34
2022-08-17T08:43:37.634Z,100582.47
2022-08-17T08:46:06.728Z,100590.88
2022-08-17T08:48:56.244Z,100581.56
2022-08-17T08:51:29.603Z,100596.81
2022-08-17T08:54:47.218Z,100590.81
2022-08-17T08:57:41.650Z,100581.91
2022-08-17T09:00:25.862Z,100572.53
2022-08-17T09:03:43.833Z,100590.53
2022-08-17T09:06:47.446Z,100585.88
2022-08-17T09:09:25.795Z,100595.28
2022-08-17T09:12:01.313Z,100587.97
2022-08-17T09:14:55.538Z,100585.81
2022-08-17T09:17:43.232Z,100587.84
2022-08-17T09:20:27.727Z,100594.44
2022-08-17T09:23:23.907Z,100580.84
2022-08-17T09:26:31.068Z,100579.16
2022-08-17T09:29:03.505Z,100588.16
2022-08-17T09:31:52.664Z,100583.72
2022-08-17T09:34:33.487Z,100576.66
2022-08-17T09:37:22.584Z,100582.91
2022-08-17T09:40:18.749Z,100594.94
2022-08-17T09:43:17.794Z,100577.84
2022-08-17T09:45:59.391Z,100582.06
2022-08-17T09:48:50.611Z,100578.78
2022-08-17T09:51:27.658Z,100589.91
2022-08-17T09:54:34.753Z,100585.28
2022-08-17T09:57:29.970Z,100577.50
2022-08-17T10:00:16.283Z,100577.34
2022-08-17T10:03:16.205Z,100577.34
2022-08-17T10:06:07.928Z,100576.94
2022-08-17T10:08:52.657Z,100577.28
2022-08-17T10:11:58.345Z,100576.63
2022-08-17T10:14:55.260Z,100573.16
2022-08-17T10:17:44.193Z,100567.25
2022-08-17T10:20:29.679Z,100564.59
2022-08-17T10:23:21.712Z,100582.41
2022-08-17T10:26:13.021Z,100590.34
2022-08-17T10:29:28.942Z,100585.13
2022-08-17T10:32:16.058Z,100586.03
2022-08-17T10:35:09.765Z,100581.69
2022-08-17T10:37:46.133Z,100590.47
2022-08-17T10:40:34.850Z,100587.06
2022-08-17T10:43:33.146Z,100600.09
2022-08-17T10:46:31.274Z,100593.56
2022-08-17T10:49:34.174Z,100599.63
2022-08-17T10:52:48.476Z,100595.38
2022-08-17T10:55:17.890Z,100598.06
2022-08-17T10:57:49.514Z,100598.41
2022-08-17T11:00:28.465Z,100589.72
2022-08-17T11:03:04.441Z,100599.59
2022-08-17T11:05:58.940Z,100605.47
2022-08-17T11:08:37.847Z,100590.97
2022-08-17T11:11:27.530Z,100595.06
2022-08-17T11:14:11.203Z,100589.19
2022-08-17T11:17:05.004Z,100590.00
2022-08-17T11:20:12.467Z,100577.47
2022-08-17T11:23:04.337Z,100575.47
2022-08-17T11:25:43.342Z,100566.09
2022-08-17T11:28:16.898Z,100556.41
2022-08-17T11:30:48.679Z,100563.38
2022-08-17T11:33:36.883Z,100560.59
2022-08-17T11:36:14.640Z,100568.75
2022-08-17T11:38:57.961Z,100560.31
2022-08-17T11:41:39.565Z,100555.94
2022-08-17T11:44:22.276Z,100543.38
2022-08-17T11:47:29.736Z,100547.81
2022-08-17T11:50:34.406Z,100542.56
2022-08-17T11:53:06.043Z,100533.28
2022-08-17T11:55:38.209Z,100542.25
2022-08-17T11:58:48.120Z,100535.22
2022-08-17T12:01:26.858Z,100533.94
2022-08-17T12:04:19.474Z,100525.56
2022-08-17T12:06:54.672Z,100528.66
2022-08-17T12:09:34.572Z,100540.31
2022-08-17T12:12:20.757Z,100537.34
2022-08-17T12:15:10.164Z,100547.84
2022-08-17T12:17:50.933Z,100539.47
2022-08-17T12:20:28.983Z,100537.94
2022-08-17T12:23:02.429Z,100548.09
2022-08-17T12:26:03.951Z,100550.56
2022-08-17T12:28:39.492Z,100551.31
2022-08-17T12:31:24.647Z,100563.25
2022-08-17T12:34:00.379Z,100551.44
2022-08-17T12:36:39.213Z,100563.31
2022-08-17T12:39:14.169Z,100567.47
2022-08-17T12:42:02.812Z,100569.13
2022-08-17T12:44:36.363Z,100567.53
2022-08-17T12:47:22.314Z,100557.03
2022-08-17T12:49:55.588Z,100542.00
2022-08-17T12:52:33.344Z,100545.66
2022-08-17T12:55:07.071Z,100530.69
2022-08-17T12:57:42.979Z,100554.22
2022-08-17T13:00:38.161Z,100554.28
2022-08-17T13:03:13.684Z,100553.03
2022-08-17T13:06:02.125Z,100546.66
2022-08-17T13:08:44.860Z,100548.66
2022-08-17T13:11:16.619Z,100546.22
2022-08-17T13:13:50.864Z,100554.00
2022-08-17T13:16:28.048Z,100553.16
2022-08-17T13:19:08.288Z,100550.19
2022-08-17T13:21:46.221Z,100552.38
2022-08-17T13:24:38.173Z,100545.53
2022-08-17T13:27:14.891Z,100554.47
2022-08-17T13:29:44.466Z,100545.88
2022-08-17T13:32:14.886Z,100555.22
2022-08-17T13:35:12.516Z,100557.59
2022-08-17T13:38:01.461Z,100563.72
2022-08-17T13:40:41.832Z,100555.22
2022-08-17T13:43:33.707Z,100556.00
2022-08-17T13:46:34.442Z,100557.72
2022-08-17T13:49:12.193Z,100555.22
2022-08-17T13:51:49.198Z,100544.28
2022-08-17T13:54:34.282Z,100547.19
2022-08-17T13:57:06.835Z,100546.00
2022-08-17T13:59:54.636Z,100535.44
2022-08-17T14:02:28.343Z,100536.22
2022-08-17T14:05:01.081Z,100532.66
2022-08-17T14:07:34.127Z,100524.91
2022-08-17T14:10:05.064Z,100515.97
2022-08-17T14:12:42.027Z,100512.31
2022-08-17T14:15:53.947Z,100501.75
2022-08-17T14:18:50.543Z,100500.09
2022-08-17T14:21:09.199Z,100476.88
2022-08-17T14:23:43.553Z,100483.81
2022-08-17T14:26:25.307Z,100477.34
2022-08-17T14:28:56.709Z,100470.88
2022-08-17T14:31:34.122Z,100470.81
2022-08-17T14:34:13.014Z,100465.56
2022-08-17T14:36:45.534Z,100466.00
2022-08-17T14:39:18.496Z,100468.03
2022-08-17T14:41:49.667Z,100475.03
2022-08-17T14:44:25.649Z,100479.00
2022-08-17T14:47:04.863Z,100477.03
2022-08-17T14:49:39.232Z,100466.81
2022-08-17T14:52:15.749Z,100449.84
2022-08-17T14:54:56.226Z,100434.09
2022-08-17T14:57:34.629Z,100436.03
2022-08-17T15:00:04.887Z,100435.66
2022-08-17T15:02:59.283Z,100433.66
2022-08-17T15:05:54.386Z,100427.25
2022-08-17T15:08:33.338Z,100421.56
2022-08-17T15:11:07.740Z,100423.16
2022-08-17T15:13:52.573Z,100421.94
2022-08-17T15:16:35.416Z,100413.03
2022-08-17T15:19:11.089Z,100415.75
2022-08-17T15:21:41.737Z,100415.00
2022-08-17T15:24:21.829Z,100399.59
2022-08-17T15:26:55.407Z,100394.72
2022-08-17T15:29:29.920Z,100395.56
2022-08-17T15:32:00.719Z,100393.00
2022-08-17T15:34:32.174Z,100399.06
2022-08-17T15:37:09.894Z,100392.25
2022-08-17T15:39:40.865Z,100400.66
2022-08-17T15:42:12.451Z,100398.44
2022-08-17T15:44:44.768Z,100397.41
2022-08-17T15:47:15.631Z,100395.56
2022-08-17T15:49:49.019Z,100400.25
2022-08-17T15:52:25.059Z,100401.63
2022-08-17T15:54:58.771Z,100406.41
2022-08-17T15:57:33.101Z,100411.06
2022-08-17T16:00:08.789Z,100409.88
2022-08-17T16:03:44.585Z,100419.59
2022-08-17T16:05:34.866Z,100429.72
2022-08-17T16:08:07.256Z,100433.47
2022-08-17T16:10:39.665Z,100442.41
2022-08-17T16:13:17.675Z,100457.91
2022-08-17T16:15:57.564Z,100455.78
2022-08-17T16:18:34.421Z,100449.38
2022-08-17T16:21:26.323Z,100446.16
2022-08-17T16:24:12.732Z,100442.56
2022-08-17T16:26:56.267Z,100433.78
2022-08-17T16:29:34.197Z,100432.06
2022-08-17T16:32:18.375Z,100426.94
2022-08-17T16:34:49.472Z,100416.44
2022-08-17T16:37:26.543Z,100394.84
2022-08-17T16:40:04.496Z,100383.09
2022-08-17T16:45:41.740Z,100370.56
2022-08-17T16:48:28.604Z,100362.03
2022-08-17T16:51:16.276Z,100363.66
2022-08-17T16:53:57.881Z,100359.69
2022-08-17T16:56:47.339Z,100359.59
2022-08-17T16:59:41.119Z,100355.22
2022-08-17T17:02:55.328Z,100356.66
2022-08-17T17:06:16.659Z,100365.50
2022-08-17T17:09:02.065Z,100373.63
2022-08-17T17:11:44.548Z,100401.56
2022-08-17T17:14:30.208Z,100403.53
2022-08-17T17:17:19.084Z,100414.03
2022-08-17T17:20:11.337Z,100420.91
2022-08-17T17:22:52.060Z,100416.81
2022-08-17T17:25:39.638Z,100409.00
2022-08-17T17:28:35.995Z,100400.47
2022-08-17T17:31:25.614Z,100393.06
2022-08-17T17:34:03.914Z,100399.59
2022-08-17T17:36:41.792Z,100399.94
2022-08-17T17:39:18.433Z,100415.75
2022-08-17T17:41:58.371Z,100408.03
2022-08-17T17:44:41.747Z,100403.94
2022-08-17T17:47:18.407Z,100428.69
2022-08-17T17:49:57.402Z,100441.69
2022-08-17T17:52:38.004Z,100442.16
2022-08-17T17:55:36.161Z,100466.47
2022-08-17T17:58:27.134Z,100481.88
2022-08-17T18:01:10.431Z,100487.50
2022-08-17T18:04:17.586Z,100469.59
2022-08-17T18:07:13.480Z,100456.75
2022-08-17T18:10:05.737Z,100483.25
2022-08-17T18:12:58.290Z,100501.81
2022-08-17T18:15:54.611Z,100525.03
2022-08-17T18:18:37.990Z,100529.22
2022-08-17T18:21:15.911Z,100501.75
2022-08-17T18:24:04.092Z,100489.16
2022-08-17T18:26:47.301Z,100500.94
2022-08-17T18:29:44.717Z,100521.84
2022-08-17T18:32:29.298Z,100513.13
2022-08-17T18:35:19.834Z,100516.72
2022-08-17T18:38:20.465Z,100531.34
2022-08-17T18:41:03.639Z,100507.72
2022-08-17T18:43:53.256Z,100518.69
2022-08-17T18:46:33.203Z,100540.25
2022-08-17T18:49:28.825Z,100542.22
2022-08-17T18:52:27.803Z,100549.94
2022-08-17T18:55:28.646Z,100555.66
2022-08-17T18:58:18.124Z,100558.88
2022-08-17T19:00:52.031Z,100567.88
2022-08-17T19:03:28.659Z,100577.22
2022-08-17T19:06:26.964Z,100569.03
2022-08-17T19:09:05.186Z,100552.38
2022-08-17T19:11:39.784Z,100564.19
2022-08-17T19:14:13.316Z,100582.56
2022-08-17T19:16:52.644Z,100591.47
2022-08-17T19:19:56.447Z,100579.63
2022-08-17T19:22:53.041Z,100575.19
2022-08-17T19:25:30.263Z,100573.13
2022-08-17T19:28:22.338Z,100590.19
2022-08-17T19:31:09.353Z,100590.19
2022-08-17T19:33:42.724Z,100574.72
2022-08-17T19:36:38.513Z,100560.03
2022-08-17T19:39:26.954Z,100556.81
2022-08-17T19:42:22.558Z,100566.13
2022-08-17T19:45:21.668Z,100575.03
2022-08-17T19:48:03.011Z,100573.00
2022-08-17T19:50:57.986Z,100556.41
2022-08-17T19:54:06.432Z,100551.88
2022-08-17T19:57:02.926Z,100549.03
2022-08-17T19:59:52.103Z,100559.53
2022-08-17T20:02:57.916Z,100548.59
2022-08-17T20:06:08.807Z,100540.50
2022-08-17T20:08:39.591Z,100543.69
2022-08-17T20:11:17.798Z,100548.22
2022-08-17T20:14:16.470Z,100551.88
2022-08-17T20:16:52.110Z,100546.13
2022-08-17T20:19:31.805Z,100541.22
2022-08-17T20:22:19.810Z,100553.50
2022-08-17T20:25:02.356Z,100543.69
2022-08-17T20:27:56.575Z,100534.34
2022-08-17T20:30:45.956Z,100540.91
2022-08-17T20:33:51.756Z,100544.50
2022-08-17T20:36:36.737Z,100561.16
2022-08-17T20:39:36.145Z,100573.44
2022-08-17T20:42:22.149Z,100572.56
2022-08-17T20:45:02.878Z,100579.88
2022-08-17T20:48:18.659Z,100585.66
2022-08-17T20:51:22.506Z,100597.47
2022-08-17T20:53:55.418Z,100583.97
2022-08-17T20:56:43.550Z,100566.94
2022-08-17T20:59:27.674Z,100583.69
2022-08-17T21:02:23.453Z,100579.19
2022-08-17T21:04:54.571Z,100575.03
2022-08-17T21:07:45.033Z,100575.09
2022-08-17T21:10:24.155Z,100567.47
2022-08-17T21:13:15.745Z,100547.09
2022-08-17T21:15:50.459Z,100560.59
2022-08-17T21:18:46.370Z,100562.09
2022-08-17T21:21:57.898Z,100549.66
2022-08-17T21:24:51.336Z,100540.72
2022-08-17T21:27:56.029Z,100544.53
2022-08-17T21:30:58.540Z,100553.56
2022-08-17T21:33:43.732Z,100556.69
2022-08-17T21:36:26.926Z,100559.91
2022-08-17T21:39:08.721Z,100577.03
2022-08-17T21:41:56.873Z,100581.47
2022-08-17T21:44:41.974Z,100573.03
2022-08-17T21:47:26.579Z,100566.28
2022-08-17T21:50:20.168Z,100553.78
2022-08-17T21:53:05.388Z,100549.50
2022-08-17T21:55:45.205Z,100562.78
2022-08-17T21:58:53.965Z,100552.38
2022-08-17T22:01:36.195Z,100555.94
2022-08-17T22:04:15.914Z,100558.81
2022-08-17T22:06:57.335Z,100552.59
2022-08-17T22:09:33.629Z,100558.31
2022-08-17T22:12:21.839Z,100560.63
2022-08-17T22:14:55.857Z,100561.16
2022-08-17T22:17:37.784Z,100565.34
2022-08-17T22:20:16.902Z,100564.19
2022-08-17T22:23:08.972Z,100563.38
2022-08-17T22:26:01.560Z,100559.44
2022-08-17T22:28:56.607Z,100555.84
2022-08-17T22:31:54.438Z,100547.66
2022-08-17T22:34:33.806Z,100549.72
2022-08-17T22:37:32.213Z,100549.88
2022-08-17T22:40:08.207Z,100549.50
2022-08-17T22:42:49.641Z,100543.38
2022-08-17T22:45:25.602Z,100544.63
2022-08-17T22:48:09.063Z,100543.38
2022-08-17T22:50:46.263Z,100541.69
2022-08-17T22:53:43.545Z,100536.06
2022-08-17T22:56:40.106Z,100530.34
2022-08-17T22:59:59.841Z,100531.25
2022-08-17T23:02:39.240Z,100522.34
2022-08-17T23:05:41.130Z,100508.44
2022-08-17T23:08:14.494Z,100516.09
2022-08-17T23:10:55.557Z,100511.19
2022-08-17T23:13:33.470Z,100511.09
2022-08-17T23:16:12.670Z,100512.38
2022-08-17T23:18:46.346Z,100520.91
2022-08-17T23:21:29.507Z,100510.41
2022-08-17T23:24:02.980Z,100496.59
2022-08-17T23:26:42.143Z,100495.81
2022-08-17T23:29:20.853Z,100499.78
2022-08-17T23:31:57.820Z,100499.69
2022-08-17T23:34:31.469Z,100501.34
2022-08-17T23:37:04.949Z,100494.38
2022-08-17T23:39:44.649Z,100481.19
2022-08-17T23:42:23.423Z,100475.91
2022-08-17T23:44:55.873Z,100477.06
2022-08-17T23:47:34.845Z,100459.97
2022-08-17T23:50:08.582Z,100463.28
2022-08-17T23:52:53.628Z,100455.44
2022-08-17T23:55:37.225Z,100458.00
2022-08-17T23:58:13.262Z,100441.78
